sensor_id;sensor_type;location;lat;lon;timestamp;pressure;altitude;pressure_sealevel;temperature;humidity
44697;BME280;57264;47.480;19.354;2023-06-10T00:02:08;98730.97;;;15.28;100.00
44697;BME280;57264;47.480;19.354;2023-06-10T00:04:34;98734.28;;;15.19;100.00
44697;BME280;57264;47.480;19.354;2023-06-10T00:07:05;98736.38;;;15.17;100.00
44697;BME280;57264;47.480;19.354;2023-06-10T00:09:37;98735.63;;;15.21;100.00
44697;BME280;57264;47.480;19.354;2023-06-10T00:12:05;98728.00;;;15.25;100.00
44697;BME280;57264;47.480;19.354;2023-06-10T00:14:42;98724.16;;;15.32;100.00
44697;BME280;57264;47.480;19.354;2023-06-10T00:17:07;98727.84;;;15.31;100.00
44697;BME280;57264;47.480;19.354;2023-06-10T00:19:36;98729.66;;;15.31;100.00
44697;BME280;57264;47.480;19.354;2023-06-10T00:22:01;98719.59;;;15.28;100.00
44697;BME280;57264;47.480;19.354;2023-06-10T00:24:28;98724.19;;;15.37;100.00
44697;BME280;57264;47.480;19.354;2023-06-10T00:26:53;98721.53;;;15.37;100.00
44697;BME280;57264;47.480;19.354;2023-06-10T00:29:18;98727.63;;;15.38;100.00
44697;BME280;57264;47.480;19.354;2023-06-10T00:31:44;98722.69;;;15.46;100.00
44697;BME280;57264;47.480;19.354;2023-06-10T00:34:10;98716.06;;;15.44;100.00
44697;BME280;57264;47.480;19.354;2023-06-10T00:36:35;98721.88;;;15.46;100.00
44697;BME280;57264;47.480;19.354;2023-06-10T00:39:01;98719.09;;;15.53;100.00
44697;BME280;57264;47.480;19.354;2023-06-10T00:41:26;98724.13;;;15.54;100.00
44697;BME280;57264;47.480;19.354;2023-06-10T00:43:52;98732.63;;;15.56;100.00
44697;BME280;57264;47.480;19.354;2023-06-10T00:46:17;98727.31;;;15.56;100.00
44697;BME280;57264;47.480;19.354;2023-06-10T00:48:43;98725.44;;;15.52;100.00
44697;BME280;57264;47.480;19.354;2023-06-10T00:51:10;98722.78;;;15.52;100.00
44697;BME280;57264;47.480;19.354;2023-06-10T00:53:36;98735.25;;;15.56;100.00
44697;BME280;57264;47.480;19.354;2023-06-10T00:56:02;98729.13;;;15.51;100.00
44697;BME280;57264;47.480;19.354;2023-06-10T00:58:27;98730.38;;;15.48;100.00
44697;BME280;57264;47.480;19.354;2023-06-10T01:00:53;98731.25;;;15.54;100.00
44697;BME280;57264;47.480;19.354;2023-06-10T01:03:18;98730.22;;;15.55;100.00
44697;BME280;57264;47.480;19.354;2023-06-10T01:05:44;98724.03;;;15.49;100.00
44697;BME280;57264;47.480;19.354;2023-06-10T01:08:33;98723.50;;;15.47;100.00
44697;BME280;57264;47.480;19.354;2023-06-10T01:11:03;98722.50;;;15.53;100.00
44697;BME280;57264;47.480;19.354;2023-06-10T01:13:30;98731.56;;;15.57;100.00
44697;BME280;57264;47.480;19.354;2023-06-10T01:15:58;98725.34;;;15.46;100.00
44697;BME280;57264;47.480;19.354;2023-06-10T01:18:29;98724.38;;;15.53;100.00
44697;BME280;57264;47.480;19.354;2023-06-10T01:20:55;98727.75;;;15.48;100.00
44697;BME280;57264;47.480;19.354;2023-06-10T01:23:21;98726.34;;;15.40;100.00
44697;BME280;57264;47.480;19.354;2023-06-10T01:26:07;98731.56;;;15.35;100.00
44697;BME280;57264;47.480;19.354;2023-06-10T01:28:43;98731.00;;;15.33;100.00
44697;BME280;57264;47.480;19.354;2023-06-10T01:33:42;98728.34;;;15.28;100.00
44697;BME280;57264;47.480;19.354;2023-06-10T01:36:08;98730.72;;;15.30;100.00
44697;BME280;57264;47.480;19.354;2023-06-10T01:38:39;98732.09;;;15.32;100.00
44697;BME280;57264;47.480;19.354;2023-06-10T01:41:05;98733.91;;;15.32;100.00
44697;BME280;57264;47.480;19.354;2023-06-10T01:43:33;98738.78;;;15.18;100.00
44697;BME280;57264;47.480;19.354;2023-06-10T01:45:58;98736.06;;;15.13;100.00
44697;BME280;57264;47.480;19.354;2023-06-10T01:48:24;98740.44;;;15.03;100.00
44697;BME280;57264;47.480;19.354;2023-06-10T01:50:50;98732.16;;;14.94;100.00
44697;BME280;57264;47.480;19.354;2023-06-10T01:53:15;98735.81;;;14.93;100.00
44697;BME280;57264;47.480;19.354;2023-06-10T01:55:40;98731.59;;;14.92;100.00
44697;BME280;57264;47.480;19.354;2023-06-10T01:58:06;98726.56;;;14.90;100.00
44697;BME280;57264;47.480;19.354;2023-06-10T02:00:31;98734.72;;;14.89;100.00
44697;BME280;57264;47.480;19.354;2023-06-10T02:02:56;98735.91;;;14.98;100.00
44697;BME280;57264;47.480;19.354;2023-06-10T02:05:22;98732.72;;;14.96;100.00
44697;BME280;57264;47.480;19.354;2023-06-10T02:07:48;98735.81;;;14.93;100.00
44697;BME280;57264;47.480;19.354;2023-06-10T02:10:13;98732.16;;;14.94;100.00
44697;BME280;57264;47.480;19.354;2023-06-10T02:12:38;98732.72;;;14.96;100.00
44697;BME280;57264;47.480;19.354;2023-06-10T02:15:04;98729.94;;;15.08;100.00
44697;BME280;57264;47.480;19.354;2023-06-10T02:17:29;98733.75;;;14.95;100.00
44697;BME280;57264;47.480;19.354;2023-06-10T02:19:55;98739.53;;;14.92;100.00
44697;BME280;57264;47.480;19.354;2023-06-10T02:22:22;98743.59;;;14.99;100.00
44697;BME280;57264;47.480;19.354;2023-06-10T02:24:47;98740.31;;;14.92;100.00
44697;BME280;57264;47.480;19.354;2023-06-10T02:27:13;98738.44;;;14.88;100.00
44697;BME280;57264;47.480;19.354;2023-06-10T02:29:38;98742.59;;;14.84;100.00
44697;BME280;57264;47.480;19.354;2023-06-10T02:32:04;98740.69;;;14.79;100.00
44697;BME280;57264;47.480;19.354;2023-06-10T02:34:29;98736.66;;;14.77;100.00
44697;BME280;57264;47.480;19.354;2023-06-10T02:36:55;98744.06;;;14.75;100.00
44697;BME280;57264;47.480;19.354;2023-06-10T02:39:21;98742.44;;;14.74;100.00
44697;BME280;57264;47.480;19.354;2023-06-10T02:41:46;98734.00;;;14.72;100.00
44697;BME280;57264;47.480;19.354;2023-06-10T02:44:12;98734.44;;;14.69;100.00
44697;BME280;57264;47.480;19.354;2023-06-10T02:46:37;98736.78;;;14.65;100.00
44697;BME280;57264;47.480;19.354;2023-06-10T02:49:02;98739.91;;;14.62;100.00
44697;BME280;57264;47.480;19.354;2023-06-10T02:51:28;98735.22;;;14.64;100.00
44697;BME280;57264;47.480;19.354;2023-06-10T02:53:53;98738.16;;;14.68;100.00
44697;BME280;57264;47.480;19.354;2023-06-10T02:56:19;98738.16;;;14.68;100.00
44697;BME280;57264;47.480;19.354;2023-06-10T02:58:45;98742.16;;;14.70;100.00
44697;BME280;57264;47.480;19.354;2023-06-10T03:01:10;98745.34;;;14.72;100.00
44697;BME280;57264;47.480;19.354;2023-06-10T03:03:36;98746.69;;;14.75;100.00
44697;BME280;57264;47.480;19.354;2023-06-10T03:06:06;98744.38;;;14.78;100.00
44697;BME280;57264;47.480;19.354;2023-06-10T03:08:31;98747.09;;;14.83;100.00
44697;BME280;57264;47.480;19.354;2023-06-10T03:10:56;98749.78;;;14.88;100.00
44697;BME280;57264;47.480;19.354;2023-06-10T03:13:22;98742.72;;;14.94;100.00
44697;BME280;57264;47.480;19.354;2023-06-10T03:15:48;98745.53;;;15.09;100.00
44697;BME280;57264;47.480;19.354;2023-06-10T03:18:14;98736.69;;;15.20;100.00
44697;BME280;57264;47.480;19.354;2023-06-10T03:20:39;98740.78;;;15.33;100.00
44697;BME280;57264;47.480;19.354;2023-06-10T03:23:05;98746.78;;;15.23;100.00
44697;BME280;57264;47.480;19.354;2023-06-10T03:25:33;98746.50;;;15.25;100.00
44697;BME280;57264;47.480;19.354;2023-06-10T03:27:59;98751.13;;;15.34;100.00
44697;BME280;57264;47.480;19.354;2023-06-10T03:30:25;98746.31;;;15.53;100.00
44697;BME280;57264;47.480;19.354;2023-06-10T03:32:50;98745.69;;;15.68;100.00
44697;BME280;57264;47.480;19.354;2023-06-10T03:35:15;98749.38;;;15.67;100.00
44697;BME280;57264;47.480;19.354;2023-06-10T03:37:42;98752.97;;;15.82;100.00
44697;BME280;57264;47.480;19.354;2023-06-10T03:40:08;98750.22;;;15.99;100.00
44697;BME280;57264;47.480;19.354;2023-06-10T03:42:34;98750.16;;;15.94;100.00
44697;BME280;57264;47.480;19.354;2023-06-10T03:44:59;98746.38;;;15.85;100.00
44697;BME280;57264;47.480;19.354;2023-06-10T03:47:24;98753.38;;;15.69;100.00
44697;BME280;57264;47.480;19.354;2023-06-10T03:49:50;98748.81;;;15.65;100.00
44697;BME280;57264;47.480;19.354;2023-06-10T03:52:15;98755.91;;;15.37;100.00
44697;BME280;57264;47.480;19.354;2023-06-10T03:54:41;98753.47;;;15.31;100.00
44697;BME280;57264;47.480;19.354;2023-06-10T03:57:06;98753.72;;;15.29;100.00
44697;BME280;57264;47.480;19.354;2023-06-10T03:59:31;98755.13;;;15.15;100.00
44697;BME280;57264;47.480;19.354;2023-06-10T04:01:57;98754.69;;;15.02;100.00
44697;BME280;57264;47.480;19.354;2023-06-10T04:04:22;98755.50;;;15.02;100.00
44697;BME280;57264;47.480;19.354;2023-06-10T04:06:48;98750.41;;;14.95;100.00
44697;BME280;57264;47.480;19.354;2023-06-10T04:09:14;98755.19;;;14.98;100.00
44697;BME280;57264;47.480;19.354;2023-06-10T04:11:41;98755.38;;;14.92;100.00
44697;BME280;57264;47.480;19.354;2023-06-10T04:14:07;98757.97;;;14.87;100.00
44697;BME280;57264;47.480;19.354;2023-06-10T04:16:33;98755.75;;;14.79;100.00
44697;BME280;57264;47.480;19.354;2023-06-10T04:18:59;98752.59;;;14.82;100.00
44697;BME280;57264;47.480;19.354;2023-06-10T04:21:24;98759.00;;;14.86;100.00
44697;BME280;57264;47.480;19.354;2023-06-10T04:23:50;98757.03;;;14.76;100.00
44697;BME280;57264;47.480;19.354;2023-06-10T04:26:16;98751.16;;;14.91;100.00
44697;BME280;57264;47.480;19.354;2023-06-10T04:28:42;98758.47;;;14.84;100.00
44697;BME280;57264;47.480;19.354;2023-06-10T04:31:08;98759.56;;;14.88;100.00
44697;BME280;57264;47.480;19.354;2023-06-10T04:33:33;98752.69;;;14.87;100.00
44697;BME280;57264;47.480;19.354;2023-06-10T04:35:58;98751.69;;;14.93;100.00
44697;BME280;57264;47.480;19.354;2023-06-10T04:38:24;98754.53;;;15.08;100.00
44697;BME280;57264;47.480;19.354;2023-06-10T04:40:50;98747.28;;;15.20;100.00
44697;BME280;57264;47.480;19.354;2023-06-10T04:43:15;98741.06;;;15.31;100.00
44697;BME280;57264;47.480;19.354;2023-06-10T04:45:41;98745.59;;;15.36;100.00
44697;BME280;57264;47.480;19.354;2023-06-10T04:48:10;98745.78;;;15.29;100.00
44697;BME280;57264;47.480;19.354;2023-06-10T04:50:36;98742.81;;;15.48;100.00
44697;BME280;57264;47.480;19.354;2023-06-10T04:53:01;98740.09;;;15.42;100.00
44697;BME280;57264;47.480;19.354;2023-06-10T04:55:26;98748.44;;;15.51;100.00
44697;BME280;57264;47.480;19.354;2023-06-10T04:57:52;98746.31;;;15.53;100.00
44697;BME280;57264;47.480;19.354;2023-06-10T05:00:17;98749.31;;;15.62;100.00
44697;BME280;57264;47.480;19.354;2023-06-10T05:02:42;98747.53;;;15.67;100.00
44697;BME280;57264;47.480;19.354;2023-06-10T05:05:08;98750.94;;;15.63;100.00
44697;BME280;57264;47.480;19.354;2023-06-10T05:07:33;98750.88;;;15.58;100.00
44697;BME280;57264;47.480;19.354;2023-06-10T05:09:59;98758.63;;;15.64;100.00
44697;BME280;57264;47.480;19.354;2023-06-10T05:12:24;98751.22;;;15.66;100.00
44697;BME280;57264;47.480;19.354;2023-06-10T05:14:50;98758.03;;;15.84;100.00
44697;BME280;57264;47.480;19.354;2023-06-10T05:17:15;98753.38;;;15.96;100.00
44697;BME280;57264;47.480;19.354;2023-06-10T05:19:41;98758.59;;;15.91;100.00
44697;BME280;57264;47.480;19.354;2023-06-10T05:22:08;98757.41;;;16.04;100.00
44697;BME280;57264;47.480;19.354;2023-06-10T05:24:34;98753.94;;;16.03;100.00
44697;BME280;57264;47.480;19.354;2023-06-10T05:26:59;98756.00;;;16.33;100.00
44697;BME280;57264;47.480;19.354;2023-06-10T05:29:25;98757.56;;;16.24;100.00
44697;BME280;57264;47.480;19.354;2023-06-10T05:31:51;98760.16;;;16.56;100.00
44697;BME280;57264;47.480;19.354;2023-06-10T05:34:16;98760.13;;;16.51;100.00
44697;BME280;57264;47.480;19.354;2023-06-10T05:36:41;98758.94;;;16.68;100.00
44697;BME280;57264;47.480;19.354;2023-06-10T05:39:07;98761.44;;;16.53;100.00
44697;BME280;57264;47.480;19.354;2023-06-10T05:41:32;98767.69;;;16.37;100.00
44697;BME280;57264;47.480;19.354;2023-06-10T05:43:58;98768.22;;;16.34;100.00
44697;BME280;57264;47.480;19.354;2023-06-10T05:46:23;98768.88;;;16.51;100.00
44697;BME280;57264;47.480;19.354;2023-06-10T05:48:49;98770.91;;;16.39;100.00
44697;BME280;57264;47.480;19.354;2023-06-10T05:51:14;98771.88;;;16.60;100.00
44697;BME280;57264;47.480;19.354;2023-06-10T05:53:39;98766.13;;;16.73;100.00
44697;BME280;57264;47.480;19.354;2023-06-10T05:56:05;98765.13;;;16.84;100.00
44697;BME280;57264;47.480;19.354;2023-06-10T05:58:30;98764.38;;;16.94;100.00
44697;BME280;57264;47.480;19.354;2023-06-10T06:00:56;98762.59;;;17.04;100.00
44697;BME280;57264;47.480;19.354;2023-06-10T06:03:21;98769.97;;;17.02;100.00
44697;BME280;57264;47.480;19.354;2023-06-10T06:05:46;98771.91;;;17.12;100.00
44697;BME280;57264;47.480;19.354;2023-06-10T06:08:12;98773.34;;;17.45;100.00
44697;BME280;57264;47.480;19.354;2023-06-10T06:10:38;98767.59;;;17.68;97.89
44697;BME280;57264;47.480;19.354;2023-06-10T06:13:04;98769.16;;;17.64;96.76
44697;BME280;57264;47.480;19.354;2023-06-10T06:15:29;98758.59;;;18.14;93.84
44697;BME280;57264;47.480;19.354;2023-06-10T06:17:55;98763.09;;;17.94;94.78
44697;BME280;57264;47.480;19.354;2023-06-10T06:20:21;98763.34;;;17.72;96.75
44697;BME280;57264;47.480;19.354;2023-06-10T06:22:47;98762.53;;;17.66;95.50
44697;BME280;57264;47.480;19.354;2023-06-10T06:25:12;98765.31;;;17.29;97.35
44697;BME280;57264;47.480;19.354;2023-06-10T06:27:38;98770.41;;;17.36;96.76
44697;BME280;57264;47.480;19.354;2023-06-10T06:30:03;98771.31;;;17.87;95.33
44697;BME280;57264;47.480;19.354;2023-06-10T06:32:29;98770.28;;;18.13;92.01
44697;BME280;57264;47.480;19.354;2023-06-10T06:34:55;98774.47;;;17.74;93.23
44697;BME280;57264;47.480;19.354;2023-06-10T06:37:23;98773.41;;;17.70;93.91
44697;BME280;57264;47.480;19.354;2023-06-10T06:39:52;98773.47;;;18.25;90.24
44697;BME280;57264;47.480;19.354;2023-06-10T06:42:18;98772.41;;;17.96;90.04
44697;BME280;57264;47.480;19.354;2023-06-10T06:44:44;98768.16;;;18.41;90.18
44697;BME280;57264;47.480;19.354;2023-06-10T06:47:09;98772.13;;;18.23;90.30
44697;BME280;57264;47.480;19.354;2023-06-10T06:49:35;98769.72;;;18.67;89.11
44697;BME280;57264;47.480;19.354;2023-06-10T06:52:01;98770.66;;;19.22;88.12
44697;BME280;57264;47.480;19.354;2023-06-10T06:54:26;98774.84;;;19.33;86.09
44697;BME280;57264;47.480;19.354;2023-06-10T06:56:51;98776.59;;;18.93;88.79
44697;BME280;57264;47.480;19.354;2023-06-10T06:59:17;98784.94;;;19.31;83.99
44697;BME280;57264;47.480;19.354;2023-06-10T07:01:45;98779.31;;;20.30;81.49
44697;BME280;57264;47.480;19.354;2023-06-10T07:04:11;98783.00;;;20.34;80.77
44697;BME280;57264;47.480;19.354;2023-06-10T07:06:36;98774.16;;;20.68;77.54
44697;BME280;57264;47.480;19.354;2023-06-10T07:09:03;98777.28;;;20.75;77.18
44697;BME280;57264;47.480;19.354;2023-06-10T07:11:28;98781.81;;;20.17;80.12
44697;BME280;57264;47.480;19.354;2023-06-10T07:13:54;98776.59;;;21.17;77.08
44697;BME280;57264;47.480;19.354;2023-06-10T07:16:19;98776.94;;;19.90;79.23
44697;BME280;57264;47.480;19.354;2023-06-10T07:18:46;98786.97;;;19.59;80.87
44697;BME280;57264;47.480;19.354;2023-06-10T07:21:12;98783.88;;;19.32;81.67
44697;BME280;57264;47.480;19.354;2023-06-10T07:23:37;98781.41;;;19.55;81.75
44697;BME280;57264;47.480;19.354;2023-06-10T07:26:02;98787.53;;;19.56;80.51
44697;BME280;57264;47.480;19.354;2023-06-10T07:28:28;98785.91;;;19.99;81.73
44697;BME280;57264;47.480;19.354;2023-06-10T07:30:53;98789.72;;;19.39;82.31
44697;BME280;57264;47.480;19.354;2023-06-10T07:33:19;98786.81;;;19.30;82.68
44697;BME280;57264;47.480;19.354;2023-06-10T07:35:44;98775.81;;;19.96;82.20
44697;BME280;57264;47.480;19.354;2023-06-10T07:38:10;98786.16;;;19.58;82.14
44697;BME280;57264;47.480;19.354;2023-06-10T07:40:35;98782.91;;;20.10;81.12
44697;BME280;57264;47.480;19.354;2023-06-10T07:43:00;98781.13;;;20.35;79.58
44697;BME280;57264;47.480;19.354;2023-06-10T07:45:26;98780.88;;;20.65;79.09
44697;BME280;57264;47.480;19.354;2023-06-10T07:47:51;98779.38;;;21.30;77.18
44697;BME280;57264;47.480;19.354;2023-06-10T07:50:17;98789.56;;;20.99;77.24
44697;BME280;57264;47.480;19.354;2023-06-10T07:52:42;98786.66;;;20.43;79.27
44697;BME280;57264;47.480;19.354;2023-06-10T07:55:07;98793.22;;;19.83;79.68
44697;BME280;57264;47.480;19.354;2023-06-10T07:57:33;98790.59;;;19.78;78.89
44697;BME280;57264;47.480;19.354;2023-06-10T08:00:02;98791.69;;;19.72;78.01
44697;BME280;57264;47.480;19.354;2023-06-10T08:02:29;98799.03;;;19.36;81.71
44697;BME280;57264;47.480;19.354;2023-06-10T08:04:55;98800.66;;;19.37;79.88
44697;BME280;57264;47.480;19.354;2023-06-10T08:07:20;98796.16;;;19.28;82.56
44697;BME280;57264;47.480;19.354;2023-06-10T08:09:47;98798.00;;;19.27;82.01
44697;BME280;57264;47.480;19.354;2023-06-10T08:12:13;98795.50;;;19.61;81.68
44697;BME280;57264;47.480;19.354;2023-06-10T08:14:38;98799.44;;;19.74;83.26
44697;BME280;57264;47.480;19.354;2023-06-10T08:17:04;98794.53;;;19.32;82.00
44697;BME280;57264;47.480;19.354;2023-06-10T08:19:31;98799.03;;;19.41;81.87
44697;BME280;57264;47.480;19.354;2023-06-10T08:21:56;98788.38;;;19.90;80.81
44697;BME280;57264;47.480;19.354;2023-06-10T08:24:21;98787.44;;;20.10;80.36
44697;BME280;57264;47.480;19.354;2023-06-10T08:26:49;98798.16;;;19.61;79.60
44697;BME280;57264;47.480;19.354;2023-06-10T08:29:14;98800.97;;;19.21;81.59
44697;BME280;57264;47.480;19.354;2023-06-10T08:31:43;98791.28;;;19.50;81.93
44697;BME280;57264;47.480;19.354;2023-06-10T08:34:09;98799.84;;;19.37;81.73
44697;BME280;57264;47.480;19.354;2023-06-10T08:36:34;98795.03;;;19.39;81.10
44697;BME280;57264;47.480;19.354;2023-06-10T08:39:01;98789.66;;;19.54;81.18
44697;BME280;57264;47.480;19.354;2023-06-10T08:41:28;98791.47;;;19.63;81.40
44697;BME280;57264;47.480;19.354;2023-06-10T08:46:18;98774.06;;;20.54;78.85
44697;BME280;57264;47.480;19.354;2023-06-10T08:48:44;98779.03;;;20.32;77.97
44697;BME280;57264;47.480;19.354;2023-06-10T08:51:13;98783.44;;;20.75;77.12
44697;BME280;57264;47.480;19.354;2023-06-10T08:53:42;98785.94;;;20.38;78.02
44697;BME280;57264;47.480;19.354;2023-06-10T08:56:11;98781.03;;;20.50;76.76
44697;BME280;57264;47.480;19.354;2023-06-10T08:58:37;98780.47;;;20.53;76.46
44697;BME280;57264;47.480;19.354;2023-06-10T09:01:07;98772.44;;;21.06;73.61
44697;BME280;57264;47.480;19.354;2023-06-10T09:03:32;98771.06;;;20.84;73.77
44697;BME280;57264;47.480;19.354;2023-06-10T09:06:00;98773.22;;;21.06;74.67
44697;BME280;57264;47.480;19.354;2023-06-10T09:08:26;98767.31;;;20.85;73.48
44697;BME280;57264;47.480;19.354;2023-06-10T09:10:51;98768.66;;;21.54;72.66
44697;BME280;57264;47.480;19.354;2023-06-10T09:13:17;98762.84;;;21.05;72.07
44697;BME280;57264;47.480;19.354;2023-06-10T09:15:43;98751.81;;;21.54;70.36
44697;BME280;57264;47.480;19.354;2023-06-10T09:18:11;98759.31;;;21.52;70.65
44697;BME280;57264;47.480;19.354;2023-06-10T09:20:38;98759.97;;;21.81;68.43
44697;BME280;57264;47.480;19.354;2023-06-10T09:23:04;98757.44;;;21.10;68.88
44697;BME280;57264;47.480;19.354;2023-06-10T09:25:36;98751.94;;;21.43;68.39
44697;BME280;57264;47.480;19.354;2023-06-10T09:28:02;98753.06;;;21.99;68.50
44697;BME280;57264;47.480;19.354;2023-06-10T09:30:31;98751.69;;;21.45;69.18
44697;BME280;57264;47.480;19.354;2023-06-10T09:32:58;98753.34;;;21.97;66.73
44697;BME280;57264;47.480;19.354;2023-06-10T09:35:24;98748.38;;;22.23;64.43
44697;BME280;57264;47.480;19.354;2023-06-10T09:37:53;98747.13;;;21.64;68.13
44697;BME280;57264;47.480;19.354;2023-06-10T09:40:19;98759.13;;;21.85;69.53
44697;BME280;57264;47.480;19.354;2023-06-10T09:42:44;98758.31;;;21.29;70.00
44697;BME280;57264;47.480;19.354;2023-06-10T09:45:10;98758.19;;;21.95;69.12
44697;BME280;57264;47.480;19.354;2023-06-10T09:47:35;98758.47;;;21.37;70.86
44697;BME280;57264;47.480;19.354;2023-06-10T09:50:01;98754.97;;;21.18;70.75
44697;BME280;57264;47.480;19.354;2023-06-10T09:52:27;98758.31;;;21.47;70.87
44697;BME280;57264;47.480;19.354;2023-06-10T09:54:53;98755.31;;;21.12;73.20
44697;BME280;57264;47.480;19.354;2023-06-10T09:57:19;98752.00;;;21.20;73.52
44697;BME280;57264;47.480;19.354;2023-06-10T09:59:45;98755.44;;;20.49;76.25
44697;BME280;57264;47.480;19.354;2023-06-10T10:02:14;98760.56;;;20.69;75.11
44697;BME280;57264;47.480;19.354;2023-06-10T10:04:40;98755.63;;;20.58;75.00
44697;BME280;57264;47.480;19.354;2023-06-10T10:07:06;98751.72;;;20.74;76.54
44697;BME280;57264;47.480;19.354;2023-06-10T10:09:32;98746.47;;;20.87;77.31
44697;BME280;57264;47.480;19.354;2023-06-10T10:11:58;98759.25;;;20.90;75.47
44697;BME280;57264;47.480;19.354;2023-06-10T10:14:26;98752.19;;;20.18;77.68
44697;BME280;57264;47.480;19.354;2023-06-10T10:16:53;98752.44;;;21.03;76.07
44697;BME280;57264;47.480;19.354;2023-06-10T10:19:23;98747.22;;;20.69;77.20
44697;BME280;57264;47.480;19.354;2023-06-10T10:21:52;98745.06;;;21.19;74.70
44697;BME280;57264;47.480;19.354;2023-06-10T10:24:20;98746.19;;;20.65;76.41
44697;BME280;57264;47.480;19.354;2023-06-10T10:26:46;98744.00;;;20.96;75.31
44697;BME280;57264;47.480;19.354;2023-06-10T10:29:17;98740.53;;;21.19;75.49
44697;BME280;57264;47.480;19.354;2023-06-10T10:31:45;98738.25;;;21.50;73.48
44697;BME280;57264;47.480;19.354;2023-06-10T10:34:13;98729.28;;;21.22;73.28
44697;BME280;57264;47.480;19.354;2023-06-10T10:36:41;98728.41;;;21.83;71.27
44697;BME280;57264;47.480;19.354;2023-06-10T10:39:07;98732.53;;;21.75;71.95
44697;BME280;57264;47.480;19.354;2023-06-10T10:41:32;98731.97;;;21.41;74.05
44697;BME280;57264;47.480;19.354;2023-06-10T10:43:58;98726.94;;;21.58;72.89
44697;BME280;57264;47.480;19.354;2023-06-10T10:46:25;98729.66;;;21.34;73.17
44697;BME280;57264;47.480;19.354;2023-06-10T10:48:53;98733.03;;;20.97;73.48
44697;BME280;57264;47.480;19.354;2023-06-10T10:51:22;98732.25;;;20.97;75.11
44697;BME280;57264;47.480;19.354;2023-06-10T10:54:09;98723.16;;;20.74;74.79
44697;BME280;57264;47.480;19.354;2023-06-10T10:56:34;98724.72;;;20.99;75.21
44697;BME280;57264;47.480;19.354;2023-06-10T10:59:02;98721.84;;;20.72;74.97
44697;BME280;57264;47.480;19.354;2023-06-10T11:01:28;98732.06;;;20.65;76.27
44697;BME280;57264;47.480;19.354;2023-06-10T11:04:06;98721.22;;;21.03;75.61
44697;BME280;57264;47.480;19.354;2023-06-10T11:06:31;98718.72;;;21.12;73.57
44697;BME280;57264;47.480;19.354;2023-06-10T11:08:57;98708.13;;;20.83;75.19
44697;BME280;57264;47.480;19.354;2023-06-10T11:11:24;98706.34;;;21.21;74.52
44697;BME280;57264;47.480;19.354;2023-06-10T11:16:29;98704.03;;;21.33;71.96
44697;BME280;57264;47.480;19.354;2023-06-10T11:18:55;98691.97;;;21.36;71.02
44697;BME280;57264;47.480;19.354;2023-06-10T11:21:24;98695.50;;;21.13;71.08
44697;BME280;57264;47.480;19.354;2023-06-10T11:23:50;98693.00;;;21.40;70.43
44697;BME280;57264;47.480;19.354;2023-06-10T11:31:26;98682.88;;;23.43;67.91
44697;BME280;57264;47.480;19.354;2023-06-10T11:33:53;98680.22;;;23.43;63.93
44697;BME280;57264;47.480;19.354;2023-06-10T11:36:19;98674.94;;;22.75;63.29
44697;BME280;57264;47.480;19.354;2023-06-10T11:38:44;98673.47;;;23.68;65.91
44697;BME280;57264;47.480;19.354;2023-06-10T11:41:13;98679.97;;;23.17;62.33
44697;BME280;57264;47.480;19.354;2023-06-10T11:43:45;98677.22;;;23.45;61.28
44697;BME280;57264;47.480;19.354;2023-06-10T11:46:11;98691.81;;;23.03;64.45
44697;BME280;57264;47.480;19.354;2023-06-10T11:48:36;98685.75;;;22.43;66.82
44697;BME280;57264;47.480;19.354;2023-06-10T11:51:08;98684.78;;;22.06;69.94
44697;BME280;57264;47.480;19.354;2023-06-10T11:53:34;98686.34;;;21.56;68.60
44697;BME280;57264;47.480;19.354;2023-06-10T11:56:00;98682.25;;;21.45;68.94
44697;BME280;57264;47.480;19.354;2023-06-10T11:58:25;98689.97;;;21.65;69.67
44697;BME280;57264;47.480;19.354;2023-06-10T12:00:51;98685.56;;;21.56;68.93
44697;BME280;57264;47.480;19.354;2023-06-10T12:03:18;98684.16;;;21.77;70.50
44697;BME280;57264;47.480;19.354;2023-06-10T12:06:00;98685.06;;;21.35;70.64
44697;BME280;57264;47.480;19.354;2023-06-10T12:08:26;98680.09;;;21.28;70.04
44697;BME280;57264;47.480;19.354;2023-06-10T12:10:52;98676.19;;;21.21;69.70
44697;BME280;57264;47.480;19.354;2023-06-10T12:13:18;98672.50;;;21.35;70.91
44697;BME280;57264;47.480;19.354;2023-06-10T12:15:44;98672.97;;;22.07;69.24
44697;BME280;57264;47.480;19.354;2023-06-10T12:18:16;98673.97;;;21.79;67.55
44697;BME280;57264;47.480;19.354;2023-06-10T12:20:43;98669.78;;;22.51;65.60
44697;BME280;57264;47.480;19.354;2023-06-10T12:23:09;98658.09;;;22.47;65.94
44697;BME280;57264;47.480;19.354;2023-06-10T12:25:34;98659.25;;;23.09;63.03
44697;BME280;57264;47.480;19.354;2023-06-10T12:28:02;98662.09;;;23.26;61.77
44697;BME280;57264;47.480;19.354;2023-06-10T12:30:28;98649.72;;;23.39;60.56
44697;BME280;57264;47.480;19.354;2023-06-10T12:32:54;98639.97;;;23.35;61.95
44697;BME280;57264;47.480;19.354;2023-06-10T12:35:21;98633.16;;;24.26;60.93
44697;BME280;57264;47.480;19.354;2023-06-10T12:38:02;98632.97;;;23.69;59.59
44697;BME280;57264;47.480;19.354;2023-06-10T12:40:37;98629.50;;;24.61;58.71
44697;BME280;57264;47.480;19.354;2023-06-10T12:43:04;98628.00;;;25.12;57.46
44697;BME280;57264;47.480;19.354;2023-06-10T12:45:33;98627.47;;;24.84;58.40
44697;BME280;57264;47.480;19.354;2023-06-10T12:48:05;98624.44;;;24.20;58.74
44697;BME280;57264;47.480;19.354;2023-06-10T12:50:32;98626.13;;;24.39;57.53
44697;BME280;57264;47.480;19.354;2023-06-10T12:52:59;98625.22;;;23.90;58.81
44697;BME280;57264;47.480;19.354;2023-06-10T12:55:25;98628.47;;;23.56;60.68